Terminal Aerodrome Forecast
Issued by NWS

Home | Current Version | Previous Version | Graphics & Text | Print | Product List | Glossary Off
Versions: 1 2 3 4 5 6 7 8 9 10 11 12 13

963
FTUS43 KBIS 192332
TAFJMS
TAF
KJMS 192332Z 2000/2024 15007KT P6SM BKN120 WS020/20035KT
     FM200500 15006KT P6SM OVC120
     FM200900 25010KT 4SM BR VCSH OVC015
     FM201700 28015KT P6SM BKN070=

USA.gov is the U.S. government's official web portal to all federal, state and local government web resources and services.